Patuxent River Naval Air Station/Trapnell Field Aiport
KNHK : now visible

Airfield :











YOU CAN JOIN US ON...

 
LOGIN :

Register | Disclaimer

   EN    FR    IT 

 









Legend :    VFR   Marginal VFR   IFR   Intensive IFR   Very Intensive IFR
Visi :
Ceiling :
>= 8 km
>= 3000ft
5 to 8 km
1000 to 3000 ft
1500m to 5 km
500 to 1000 ft
800 to 1500m
200 to 500 ft
< 800m
< 200 ft
Symbols :   Thunderstorms  Fog  Heavy snow  Heavy precipitations  Wind > 20 kt







- Airport Elevation : 39 ft


KNHK - Patuxent River Naval Air Station/Trapnell Field Aiport

CURRENT METAR :
  • 181052Z 22007KT 10SM FEW140 26/23 A2989 RMK AO2 PK WND 09096/1008 SLP122 T02610233

EXPIRED METARs :
  • 180952Z 21008KT 10SM FEW140 SCT260 26/23 A2986 RMK AO2 SLP113 T02610233
  • 180852Z AUTO 21009KT 10SM CLR 27/23 A2986 RMK AO2 SLP112 T02720228 58013

TAF TAF KNHK
Valid from the 18 at 07:00 until the 19 at 07:00 UTC


1807/1907 21006KT 9999 FEW040 BKN120 QNH2984INS
TEMPO 1807/1812 8000 BR
BECMG 1814/1816 19010KT 9999 VCTS SCT040CB BKN140 QNH2981INS
TEMPO 1820/1900 VRB20G30KT 4800 TSRA BR BKN030CB OVC120
BECMG 1900/1902 19007KT 9999 NSW FEW020 SCT035 BKN060 BKN250 QNH2985INS AUTOMATED SENSOR METWATCH 1807 TIL 1808 T25/1811Z T33/1821Z FN00194
KZDC FIR / North America



MET'MAP, your aeronautical weather chart ! - Copyright ORBIFLY December 2007 - Disclaimer

ORBIFLY MET'MAP TEAM :

Programming & Development : Alexandra Zaïnal
Concept & Development : Baudouin d'Aumeries
Co-Development & Prog : Marc-Olivier Méhu
Technical & hardware support : Manuel Goepfert

Contact : metmap@orbifly.com




SOURCES & CREDITS :

   NOAA       Earth
Advisory